createdAt,value
2019-02-28T00:02:37.074Z,2.43
2019-02-28T00:05:27.465Z,2.27
2019-02-28T00:08:17.318Z,2.37
2019-02-28T00:11:08.473Z,2.50
2019-02-28T00:13:58.332Z,2.97
2019-02-28T00:16:48.865Z,2.30
2019-02-28T00:19:39.773Z,2.83
2019-02-28T00:22:31.502Z,1.67
2019-02-28T00:25:21.393Z,2.10
2019-02-28T00:28:11.786Z,2.50
2019-02-28T00:31:02.122Z,2.40
2019-02-28T00:33:52.582Z,2.80
2019-02-28T00:36:43.604Z,2.60
2019-02-28T00:39:34.903Z,2.67
2019-02-28T00:42:25.872Z,2.47
2019-02-28T00:45:15.220Z,2.27
2019-02-28T00:48:06.015Z,2.50
2019-02-28T00:50:58.523Z,3.03
2019-02-28T00:53:48.734Z,3.70
2019-02-28T00:56:39.492Z,2.33
2019-02-28T00:59:31.722Z,3.97
2019-02-28T01:02:21.587Z,4.50
2019-02-28T01:05:11.940Z,4.50
2019-02-28T01:08:03.212Z,7.60
2019-02-28T01:10:53.553Z,12.27
2019-02-28T01:13:44.806Z,15.70
2019-02-28T01:16:34.859Z,16.33
2019-02-28T01:19:25.374Z,18.07
2019-02-28T01:22:15.372Z,16.03
2019-02-28T01:25:07.122Z,11.37
2019-02-28T01:27:58.334Z,9.10
2019-02-28T01:30:49.213Z,5.00
2019-02-28T01:33:40.808Z,4.50
2019-02-28T01:36:31.953Z,3.23
2019-02-28T01:39:23.350Z,2.20
2019-02-28T01:42:16.243Z,2.10
2019-02-28T01:45:09.792Z,2.03
2019-02-28T01:47:59.033Z,1.77
2019-02-28T01:50:49.205Z,1.57
2019-02-28T01:53:39.793Z,1.70
2019-02-28T01:56:29.994Z,1.47
2019-02-28T01:59:21.656Z,1.30
2019-02-28T02:02:12.733Z,1.00
2019-02-28T02:05:03.051Z,1.60
2019-02-28T02:07:54.493Z,1.30
2019-02-28T02:10:45.053Z,1.17
2019-02-28T02:13:36.932Z,0.90
2019-02-28T02:16:27.861Z,1.07
2019-02-28T02:19:18.807Z,1.40
2019-02-28T02:22:09.377Z,1.10
2019-02-28T02:25:03.123Z,1.47
2019-02-28T02:27:53.449Z,1.47
2019-02-28T02:30:50.407Z,1.63
2019-02-28T02:33:36.337Z,1.37
2019-02-28T02:36:26.192Z,1.50
2019-02-28T02:39:17.803Z,1.23
2019-02-28T02:42:11.438Z,1.23
2019-02-28T02:45:05.085Z,1.17
2019-02-28T02:47:52.913Z,1.30
2019-02-28T02:50:43.453Z,0.90
2019-02-28T02:53:41.401Z,1.20
2019-02-28T02:56:25.852Z,1.20
2019-02-28T03:02:38.678Z,1.17
2019-02-28T03:05:35.230Z,1.03
2019-02-28T03:08:20.721Z,1.50
2019-02-28T03:11:10.761Z,0.53
2019-02-28T03:14:01.522Z,0.97
2019-02-28T03:16:51.828Z,0.80
2019-02-28T03:19:41.660Z,0.87
2019-02-28T03:22:32.322Z,1.03
2019-02-28T03:25:27.468Z,0.53
2019-02-28T03:28:14.461Z,1.00
2019-02-28T03:31:12.158Z,0.90
2019-02-28T03:34:10.287Z,1.13
2019-02-28T03:36:55.047Z,0.83
2019-02-28T03:39:41.380Z,0.73
2019-02-28T03:42:31.913Z,0.83
2019-02-28T03:45:22.099Z,0.60
2019-02-28T03:48:13.041Z,0.70
2019-02-28T03:51:03.450Z,0.70
2019-02-28T03:53:55.936Z,0.87
2019-02-28T03:56:51.248Z,0.97
2019-02-28T03:59:37.241Z,0.70
2019-02-28T04:02:28.059Z,0.90
2019-02-28T04:05:26.839Z,0.57
2019-02-28T04:08:11.856Z,0.80
2019-02-28T04:11:01.881Z,1.37
2019-02-28T04:13:52.438Z,0.53
2019-02-28T04:16:44.100Z,0.60
2019-02-28T04:19:34.961Z,1.00
2019-02-28T04:22:25.534Z,0.90
2019-02-28T04:25:15.283Z,0.53
2019-02-28T04:28:06.641Z,0.73
2019-02-28T04:30:57.000Z,0.60
2019-02-28T04:33:47.260Z,0.93
2019-02-28T04:36:37.128Z,0.83
2019-02-28T04:39:27.920Z,1.30
2019-02-28T04:42:18.620Z,1.00
2019-02-28T04:45:10.720Z,1.00
2019-02-28T04:48:01.343Z,1.17
2019-02-28T04:50:51.761Z,1.20
2019-02-28T04:53:42.130Z,1.07
2019-02-28T04:56:32.460Z,1.13
2019-02-28T04:59:23.428Z,1.63
2019-02-28T05:02:13.460Z,0.90
2019-02-28T05:05:03.500Z,1.20
2019-02-28T05:07:53.841Z,1.30
2019-02-28T05:10:44.720Z,1.43
2019-02-28T05:13:34.579Z,0.93
2019-02-28T05:16:25.519Z,1.03
2019-02-28T05:19:16.739Z,0.80
2019-02-28T05:22:07.099Z,0.97
2019-02-28T05:24:56.782Z,1.10
2019-02-28T05:27:47.280Z,1.10
2019-02-28T05:30:37.680Z,0.97
2019-02-28T05:33:28.340Z,1.10
2019-02-28T05:36:18.499Z,0.60
2019-02-28T05:39:08.788Z,0.63
2019-02-28T05:41:59.160Z,1.67
2019-02-28T05:44:49.520Z,1.10
2019-02-28T05:47:46.370Z,1.37
2019-02-28T05:50:31.940Z,1.20
2019-02-28T05:53:22.191Z,1.40
2019-02-28T05:56:12.238Z,1.37
2019-02-28T05:59:03.379Z,1.47
2019-02-28T06:01:54.042Z,1.33
2019-02-28T06:04:43.959Z,1.73
2019-02-28T06:07:35.280Z,1.40
2019-02-28T06:10:25.400Z,1.50
2019-02-28T06:13:18.234Z,1.70
2019-02-28T06:16:11.394Z,1.00
2019-02-28T06:19:00.162Z,1.50
2019-02-28T06:21:50.339Z,1.30
2019-02-28T06:24:40.486Z,0.97
2019-02-28T06:27:30.621Z,1.30
2019-02-28T06:30:21.082Z,1.53
2019-02-28T06:33:11.621Z,2.00
2019-02-28T06:36:04.488Z,1.17
2019-02-28T06:38:56.239Z,1.57
2019-02-28T06:41:46.443Z,1.43
2019-02-28T06:44:36.763Z,2.13
2019-02-28T06:47:28.260Z,2.47
2019-02-28T06:50:18.500Z,2.17
2019-02-28T06:53:09.042Z,3.27
2019-02-28T06:55:59.620Z,1.97
2019-02-28T06:58:49.481Z,2.23
2019-02-28T07:01:40.079Z,1.73
2019-02-28T07:04:31.280Z,2.23
2019-02-28T07:07:21.959Z,2.80
2019-02-28T07:10:13.421Z,2.20
2019-02-28T07:13:05.564Z,1.67
2019-02-28T07:15:59.029Z,2.10
2019-02-28T07:18:52.875Z,1.87
2019-02-28T07:21:44.021Z,2.87
2019-02-28T07:24:37.224Z,2.13
2019-02-28T07:27:26.694Z,1.63
2019-02-28T07:30:19.244Z,2.57
2019-02-28T07:33:10.746Z,2.70
2019-02-28T07:36:01.201Z,2.10
2019-02-28T07:38:52.667Z,2.00
2019-02-28T07:41:42.699Z,2.80
2019-02-28T07:44:33.200Z,3.23
2019-02-28T07:47:25.359Z,3.70
2019-02-28T07:50:15.599Z,2.70
2019-02-28T07:53:08.813Z,3.37
2019-02-28T07:55:59.131Z,3.17
2019-02-28T07:58:49.152Z,3.40
2019-02-28T08:01:39.781Z,2.67
2019-02-28T08:04:30.000Z,2.97
2019-02-28T08:07:20.650Z,2.80
2019-02-28T08:10:12.775Z,2.50
2019-02-28T08:13:04.159Z,2.53
2019-02-28T08:15:56.513Z,2.33
2019-02-28T08:18:51.133Z,1.50
2019-02-28T08:21:43.557Z,1.50
2019-02-28T08:24:35.815Z,2.07
2019-02-28T08:27:25.637Z,1.57
2019-02-28T08:30:19.465Z,2.13
2019-02-28T08:33:10.362Z,1.83
2019-02-28T08:36:00.880Z,1.90
2019-02-28T08:38:51.779Z,1.90
2019-02-28T08:41:42.199Z,1.30
2019-02-28T08:44:33.291Z,1.60
2019-02-28T08:47:23.494Z,1.77
2019-02-28T08:50:19.182Z,1.73
2019-02-28T08:53:08.420Z,1.30
2019-02-28T08:55:58.467Z,2.40
2019-02-28T08:58:48.874Z,2.02
2019-02-28T09:01:41.267Z,1.62
2019-02-28T09:04:40.786Z,1.95
2019-02-28T09:07:23.605Z,1.57
2019-02-28T09:10:17.519Z,2.00
2019-02-28T09:13:08.928Z,1.80
2019-02-28T09:16:01.970Z,1.95
2019-02-28T09:18:52.239Z,1.92
2019-02-28T09:21:43.120Z,2.37
2019-02-28T09:24:33.519Z,2.60
2019-02-28T09:27:23.739Z,3.20
2019-02-28T09:30:20.120Z,2.83
2019-02-28T09:33:11.297Z,3.35
2019-02-28T09:36:02.160Z,3.40
2019-02-28T09:38:57.067Z,3.08
2019-02-28T09:41:45.160Z,3.05
2019-02-28T09:44:35.594Z,3.08
2019-02-28T09:47:26.732Z,3.15
2019-02-28T09:50:22.596Z,2.65
2019-02-28T09:53:15.492Z,2.20
2019-02-28T09:56:08.903Z,2.17
2019-02-28T09:58:57.019Z,2.52
2019-02-28T10:01:47.580Z,2.40
2019-02-28T10:04:37.493Z,2.35
2019-02-28T10:07:28.140Z,2.83
2019-02-28T10:10:20.881Z,2.60
2019-02-28T10:13:14.592Z,2.42
2019-02-28T10:16:04.499Z,2.55
2019-02-28T10:18:55.960Z,2.85
2019-02-28T10:21:51.838Z,2.65
2019-02-28T10:24:38.000Z,2.15
2019-02-28T10:27:28.759Z,3.05
2019-02-28T10:30:30.719Z,2.37
2019-02-28T10:33:14.331Z,2.87
2019-02-28T10:36:04.481Z,3.17
2019-02-28T10:38:55.345Z,2.83
2019-02-28T10:41:45.480Z,2.50
2019-02-28T10:44:36.240Z,3.05
2019-02-28T10:47:29.401Z,2.77
2019-02-28T10:50:20.678Z,3.47
2019-02-28T10:53:11.287Z,2.47
2019-02-28T10:56:01.919Z,3.80
2019-02-28T10:58:53.922Z,3.62
2019-02-28T11:01:46.155Z,3.15
2019-02-28T11:04:42.874Z,3.45
2019-02-28T11:07:28.902Z,3.70
2019-02-28T11:10:24.836Z,4.00
2019-02-28T11:13:17.619Z,4.12
2019-02-28T11:16:08.020Z,3.65
2019-02-28T11:18:59.442Z,4.80
2019-02-28T11:21:49.961Z,4.78
2019-02-28T11:24:41.080Z,5.55
2019-02-28T11:27:30.940Z,5.22
2019-02-28T11:30:22.819Z,5.15
2019-02-28T11:33:13.820Z,5.83
2019-02-28T11:36:07.374Z,6.47
2019-02-28T11:38:57.840Z,6.28
2019-02-28T11:41:49.259Z,6.97
2019-02-28T11:44:43.467Z,6.53
2019-02-28T11:47:33.000Z,7.08
2019-02-28T11:50:23.439Z,7.03
2019-02-28T11:53:14.090Z,6.90
2019-02-28T11:56:04.700Z,6.40
2019-02-28T11:58:55.279Z,6.72
2019-02-28T12:01:48.318Z,5.95
2019-02-28T12:04:40.532Z,5.60
2019-02-28T12:07:34.715Z,6.25
2019-02-28T12:10:21.992Z,6.35
2019-02-28T12:13:12.843Z,5.67
2019-02-28T12:16:03.140Z,5.53
2019-02-28T12:18:53.708Z,4.67
2019-02-28T12:21:43.788Z,5.17
2019-02-28T12:24:34.308Z,4.75
2019-02-28T12:27:27.592Z,5.37
2019-02-28T12:30:22.033Z,4.72
2019-02-28T12:33:15.397Z,5.03
2019-02-28T12:36:05.385Z,5.15
2019-02-28T12:38:56.062Z,4.45
2019-02-28T12:41:46.881Z,4.42
2019-02-28T12:44:37.159Z,4.22
2019-02-28T12:47:29.488Z,4.05
2019-02-28T12:50:19.780Z,3.83
2019-02-28T12:53:10.641Z,4.97
2019-02-28T12:56:02.219Z,4.17
2019-02-28T12:58:52.899Z,4.17
2019-02-28T13:01:43.297Z,4.40
2019-02-28T13:04:35.721Z,3.98
2019-02-28T13:07:25.802Z,3.80
2019-02-28T13:10:17.848Z,3.70
2019-02-28T13:13:08.732Z,4.37
2019-02-28T13:15:59.504Z,3.10
2019-02-28T13:18:49.965Z,3.72
2019-02-28T13:21:43.549Z,3.15
2019-02-28T13:24:34.167Z,3.13
2019-02-28T13:27:25.040Z,3.63
2019-02-28T13:30:20.201Z,3.50
2019-02-28T13:33:14.928Z,4.33
2019-02-28T13:36:04.400Z,3.67
2019-02-28T13:38:55.891Z,3.57
2019-02-28T13:41:46.818Z,3.97
2019-02-28T13:44:37.386Z,4.30
2019-02-28T13:47:28.582Z,3.60
2019-02-28T13:50:22.158Z,4.23
2019-02-28T13:53:18.514Z,3.80
2019-02-28T13:56:06.459Z,4.00
2019-02-28T13:58:57.307Z,4.55
2019-02-28T14:01:52.148Z,4.28
2019-02-28T14:04:40.900Z,4.60
2019-02-28T14:07:33.688Z,4.58
2019-02-28T14:10:23.221Z,4.03
2019-02-28T14:13:13.665Z,3.87
2019-02-28T14:16:04.437Z,4.17
2019-02-28T14:18:54.962Z,5.50
2019-02-28T14:21:45.209Z,5.20
2019-02-28T14:24:35.557Z,4.87
2019-02-28T14:27:26.281Z,5.35
2019-02-28T14:30:19.732Z,4.45
2019-02-28T14:33:10.592Z,5.30
2019-02-28T14:36:01.522Z,6.28
2019-02-28T14:38:52.860Z,5.37
2019-02-28T14:41:43.239Z,6.10
2019-02-28T14:44:34.419Z,5.37
2019-02-28T14:47:24.909Z,6.12
2019-02-28T14:50:18.840Z,6.23
2019-02-28T14:53:13.137Z,4.93
2019-02-28T14:56:00.416Z,6.03
2019-02-28T14:58:54.187Z,5.20
2019-02-28T15:01:43.280Z,5.47
2019-02-28T15:04:34.799Z,6.63
2019-02-28T15:07:24.919Z,5.70
2019-02-28T15:10:17.240Z,7.23
2019-02-28T15:13:08.100Z,6.27
2019-02-28T15:15:58.839Z,6.17
2019-02-28T15:18:51.006Z,5.73
2019-02-28T15:21:42.661Z,6.07
2019-02-28T15:24:33.900Z,7.07
2019-02-28T15:27:25.401Z,6.30
2019-02-28T15:30:20.741Z,5.83
2019-02-28T15:33:11.115Z,6.13
2019-02-28T15:36:01.385Z,5.83
2019-02-28T15:38:51.841Z,5.40
2019-02-28T15:41:42.320Z,6.87
2019-02-28T15:44:32.400Z,7.07
2019-02-28T15:47:23.162Z,6.93
2019-02-28T15:50:16.351Z,6.00
2019-02-28T15:53:11.377Z,5.70
2019-02-28T15:56:00.726Z,6.17
2019-02-28T15:58:51.014Z,6.60
2019-02-28T16:01:41.882Z,5.73
2019-02-28T16:04:33.012Z,6.13
2019-02-28T16:07:23.470Z,5.40
2019-02-28T16:10:16.517Z,5.60
2019-02-28T16:13:08.375Z,6.37
2019-02-28T16:15:58.538Z,5.40
2019-02-28T16:18:49.116Z,6.40
2019-02-28T16:21:40.788Z,6.57
2019-02-28T16:24:30.961Z,5.20
2019-02-28T16:27:21.201Z,6.80
2019-02-28T16:30:12.781Z,5.63
2019-02-28T16:33:03.409Z,5.83
2019-02-28T16:35:54.481Z,6.47
2019-02-28T16:38:46.400Z,6.13
2019-02-28T16:41:37.851Z,6.07
2019-02-28T16:44:30.884Z,7.03
2019-02-28T16:47:21.506Z,6.20
2019-02-28T16:50:11.823Z,7.13
2019-02-28T16:53:02.003Z,6.33
2019-02-28T16:55:52.200Z,6.23
2019-02-28T16:58:42.799Z,6.83
2019-02-28T17:01:33.440Z,6.20
2019-02-28T17:04:23.920Z,6.40
2019-02-28T17:07:14.820Z,6.43
2019-02-28T17:10:09.220Z,8.63
2019-02-28T17:13:09.360Z,7.17
2019-02-28T17:16:22.049Z,7.73
2019-02-28T17:19:12.860Z,6.90
2019-02-28T17:22:03.467Z,6.93
2019-02-28T17:24:54.341Z,7.53
2019-02-28T17:27:51.485Z,6.27
2019-02-28T17:31:08.414Z,6.43
2019-02-28T17:33:59.941Z,8.03
2019-02-28T17:36:51.502Z,7.30
2019-02-28T17:39:43.304Z,7.13
2019-02-28T17:42:33.760Z,7.53
2019-02-28T17:45:30.180Z,7.53
2019-02-28T17:48:45.307Z,7.60
2019-02-28T17:52:05.539Z,7.77
2019-02-28T17:55:31.947Z,6.70
2019-02-28T17:58:42.780Z,7.03
2019-02-28T18:01:46.983Z,7.20
2019-02-28T18:04:58.460Z,6.80
2019-02-28T18:08:07.453Z,6.57
2019-02-28T18:11:34.097Z,6.77
2019-02-28T18:14:47.980Z,6.17
2019-02-28T18:18:21.047Z,6.10
2019-02-28T18:21:54.290Z,6.63
2019-02-28T18:25:38.560Z,5.87
2019-02-28T18:28:46.511Z,5.17
2019-02-28T18:31:36.902Z,6.43
2019-02-28T18:34:29.894Z,5.73
2019-02-28T18:37:20.793Z,6.57
2019-02-28T18:40:11.442Z,7.53
2019-02-28T18:43:02.320Z,5.93
2019-02-28T18:45:53.548Z,5.80
2019-02-28T18:48:44.420Z,4.73
2019-02-28T18:51:34.689Z,6.67
2019-02-28T18:54:24.913Z,6.53
2019-02-28T18:57:15.387Z,6.23
2019-02-28T19:00:08.037Z,6.17
2019-02-28T19:02:58.000Z,6.70
2019-02-28T19:05:48.401Z,6.20
2019-02-28T19:08:39.510Z,5.77
2019-02-28T19:11:31.501Z,6.57
2019-02-28T19:14:22.101Z,6.73
2019-02-28T19:17:12.564Z,6.00
2019-02-28T19:20:02.827Z,6.63
2019-02-28T19:22:54.133Z,6.30
2019-02-28T19:25:45.638Z,6.10
2019-02-28T19:28:36.691Z,6.53
2019-02-28T19:31:26.979Z,6.33
2019-02-28T19:34:18.824Z,6.40
2019-02-28T19:37:09.366Z,7.13
2019-02-28T19:40:00.499Z,6.50
2019-02-28T19:42:50.743Z,5.93
2019-02-28T19:45:42.961Z,6.27
2019-02-28T19:48:34.729Z,6.30
2019-02-28T19:51:25.036Z,5.97
2019-02-28T19:54:15.178Z,5.67
2019-02-28T19:57:05.881Z,6.13
2019-02-28T19:59:56.900Z,6.53
2019-02-28T20:02:47.820Z,6.60
2019-02-28T20:05:38.900Z,6.13
2019-02-28T20:08:29.035Z,7.20
2019-02-28T20:11:18.981Z,6.07
2019-02-28T20:14:09.868Z,6.80
2019-02-28T20:17:00.101Z,7.17
2019-02-28T20:19:50.644Z,6.53
2019-02-28T20:22:41.041Z,7.40
2019-02-28T20:25:31.441Z,7.03
2019-02-28T20:28:21.413Z,7.20
2019-02-28T20:31:12.461Z,6.50
2019-02-28T20:34:04.940Z,7.33
2019-02-28T20:36:55.295Z,6.70
2019-02-28T20:39:48.420Z,7.07
2019-02-28T20:42:39.789Z,7.30
2019-02-28T20:45:31.520Z,6.50
2019-02-28T20:48:24.501Z,6.30
2019-02-28T20:51:54.904Z,6.83
2019-02-28T20:54:38.963Z,6.37
2019-02-28T20:57:29.860Z,6.87
2019-02-28T21:00:24.343Z,7.07
2019-02-28T21:03:14.647Z,6.90
2019-02-28T21:06:05.380Z,6.53
2019-02-28T21:08:56.793Z,6.73
2019-02-28T21:11:47.273Z,7.13
2019-02-28T21:14:37.221Z,7.17
2019-02-28T21:17:29.584Z,7.30
2019-02-28T21:20:20.220Z,7.40
2019-02-28T21:23:12.398Z,6.57
2019-02-28T21:26:02.830Z,6.70
2019-02-28T21:28:54.661Z,7.27
2019-02-28T21:31:44.880Z,7.97
2019-02-28T21:34:35.672Z,6.87
2019-02-28T21:37:33.677Z,7.17
2019-02-28T21:40:25.872Z,6.97
2019-02-28T21:43:16.761Z,7.00
2019-02-28T21:46:07.013Z,7.33
2019-02-28T21:48:57.423Z,6.13
2019-02-28T21:51:48.082Z,6.57
2019-02-28T21:54:38.346Z,7.90
2019-02-28T21:57:29.241Z,7.20
2019-02-28T22:00:21.702Z,7.40
2019-02-28T22:03:13.060Z,6.67
2019-02-28T22:06:03.459Z,7.33
2019-02-28T22:08:54.691Z,7.07
2019-02-28T22:11:46.206Z,6.87
2019-02-28T22:14:36.719Z,7.70
2019-02-28T22:17:28.140Z,7.83
2019-02-28T22:20:19.119Z,7.80
2019-02-28T22:23:09.263Z,7.53
2019-02-28T22:25:59.165Z,7.53
2019-02-28T22:28:50.223Z,9.47
2019-02-28T22:32:02.979Z,7.03
2019-02-28T22:35:11.199Z,9.00
2019-02-28T22:38:02.477Z,6.97
2019-02-28T22:40:53.390Z,8.33
2019-02-28T22:43:44.239Z,8.77
2019-02-28T22:46:34.979Z,8.27
2019-02-28T22:49:24.920Z,9.30
2019-02-28T22:52:14.941Z,9.13
2019-02-28T22:55:05.200Z,8.97
2019-02-28T22:57:55.760Z,7.90
2019-02-28T23:00:59.983Z,8.03
2019-02-28T23:03:50.360Z,8.27
2019-02-28T23:06:41.217Z,9.27
2019-02-28T23:09:31.763Z,9.23
2019-02-28T23:12:22.042Z,9.90
2019-02-28T23:15:12.147Z,9.27
2019-02-28T23:18:02.744Z,9.07
2019-02-28T23:20:53.699Z,8.43
2019-02-28T23:23:44.660Z,9.10
2019-02-28T23:27:14.646Z,10.20
2019-02-28T23:30:31.921Z,8.80
2019-02-28T23:33:22.744Z,9.40
2019-02-28T23:36:12.719Z,9.43
2019-02-28T23:39:02.645Z,9.03
2019-02-28T23:41:54.620Z,8.60
2019-02-28T23:44:45.040Z,9.33
2019-02-28T23:47:35.308Z,9.90
2019-02-28T23:50:25.961Z,9.63
2019-02-28T23:53:16.040Z,9.73
2019-02-28T23:56:06.194Z,9.47
2019-02-28T23:58:57.003Z,9.83
